createdAt,value
2022-12-11T00:00:01.747Z,76.22
2022-12-11T00:02:31.676Z,76.23
2022-12-11T00:04:59.894Z,76.60
2022-12-11T00:07:27.484Z,77.05
2022-12-11T00:09:54.879Z,77.46
2022-12-11T00:12:22.569Z,76.91
2022-12-11T00:14:49.940Z,76.22
2022-12-11T00:17:17.241Z,76.35
2022-12-11T00:19:44.644Z,77.53
2022-12-11T00:22:11.911Z,76.85
2022-12-11T00:24:39.243Z,77.01
2022-12-11T00:27:06.625Z,76.62
2022-12-11T00:29:33.877Z,76.39
2022-12-11T00:32:01.775Z,76.67
2022-12-11T00:34:29.176Z,76.24
2022-12-11T00:36:56.578Z,76.01
2022-12-11T00:39:27.434Z,75.69
2022-12-11T00:41:55.891Z,75.49
2022-12-11T00:44:23.359Z,75.41
2022-12-11T00:46:50.869Z,75.67
2022-12-11T00:49:18.447Z,75.69
2022-12-11T00:51:45.800Z,76.19
2022-12-11T00:54:13.294Z,75.47
2022-12-11T00:56:41.141Z,75.17
2022-12-11T00:59:09.616Z,74.77
2022-12-11T01:01:37.476Z,75.01
2022-12-11T01:04:07.694Z,75.13
2022-12-11T01:06:34.962Z,74.90
2022-12-11T01:09:21.116Z,74.92
2022-12-11T01:11:48.475Z,75.21
2022-12-11T01:14:15.755Z,75.40
2022-12-11T01:16:43.388Z,75.53
2022-12-11T01:19:10.702Z,75.55
2022-12-11T01:21:38.126Z,75.39
2022-12-11T01:24:06.135Z,75.64
2022-12-11T01:26:33.356Z,76.17
2022-12-11T01:29:01.392Z,76.42
2022-12-11T01:31:28.667Z,76.78
2022-12-11T01:33:56.194Z,75.91
2022-12-11T01:36:24.204Z,76.23
2022-12-11T01:38:51.575Z,76.60
2022-12-11T01:41:19.002Z,76.55
2022-12-11T01:44:07.889Z,76.85
2022-12-11T01:46:36.334Z,76.19
2022-12-11T01:49:07.994Z,76.13
2022-12-11T01:51:44.119Z,76.64
2022-12-11T01:54:12.963Z,76.80
2022-12-11T01:56:42.412Z,76.46
2022-12-11T01:59:10.638Z,76.82
2022-12-11T02:01:45.730Z,77.36
2022-12-11T02:04:15.533Z,77.80
2022-12-11T02:06:45.106Z,77.35
2022-12-11T02:09:19.213Z,76.80
2022-12-11T02:12:04.785Z,77.12
2022-12-11T02:14:53.799Z,77.42
2022-12-11T02:17:42.333Z,77.45
2022-12-11T02:20:22.530Z,77.54
2022-12-11T02:22:55.757Z,76.86
2022-12-11T02:25:32.247Z,76.55
2022-12-11T02:28:17.834Z,76.26
2022-12-11T02:30:50.809Z,75.95
2022-12-11T02:33:26.824Z,76.08
2022-12-11T02:35:54.707Z,75.49
2022-12-11T02:38:30.023Z,75.17
2022-12-11T02:40:58.490Z,76.11
2022-12-11T02:43:25.969Z,76.00
2022-12-11T02:45:53.886Z,76.15
2022-12-11T02:48:22.699Z,77.00
2022-12-11T02:50:55.701Z,77.47
2022-12-11T02:53:26.835Z,78.32
2022-12-11T02:56:00.746Z,77.75
2022-12-11T02:58:31.619Z,77.37
2022-12-11T03:00:58.983Z,76.93
2022-12-11T03:03:28.739Z,75.99
2022-12-11T03:05:56.244Z,75.86
2022-12-11T03:08:23.570Z,75.54
2022-12-11T03:10:50.908Z,75.94
2022-12-11T03:13:20.508Z,76.92
2022-12-11T03:16:05.495Z,76.93
2022-12-11T03:18:49.103Z,77.86
2022-12-11T03:21:27.948Z,78.12
2022-12-11T03:23:55.196Z,77.91
2022-12-11T03:26:23.174Z,77.98
2022-12-11T03:29:00.288Z,77.33
2022-12-11T03:31:43.971Z,77.86
2022-12-11T03:34:19.744Z,78.32
2022-12-11T03:36:47.693Z,78.76
2022-12-11T03:39:33.949Z,78.35
2022-12-11T03:42:03.855Z,78.95
2022-12-11T03:44:32.596Z,78.53
2022-12-11T03:47:02.091Z,78.38
2022-12-11T03:49:32.506Z,78.45
2022-12-11T03:52:00.377Z,78.68
2022-12-11T03:54:28.095Z,79.28
2022-12-11T03:56:57.652Z,79.70
2022-12-11T03:59:25.083Z,80.45
2022-12-11T04:01:52.512Z,80.69
2022-12-11T04:04:20.531Z,79.98
2022-12-11T04:06:47.880Z,80.08
2022-12-11T04:09:15.436Z,79.65
2022-12-11T04:11:43.073Z,79.53
2022-12-11T04:14:33.021Z,79.44
2022-12-11T04:17:01.532Z,79.14
2022-12-11T04:19:47.683Z,79.06
2022-12-11T04:22:35.044Z,79.13
2022-12-11T04:25:04.911Z,79.34
2022-12-11T04:27:50.409Z,79.41
2022-12-11T04:30:21.546Z,79.34
2022-12-11T04:32:49.474Z,79.07
2022-12-11T04:35:17.117Z,78.17
2022-12-11T04:37:44.629Z,78.22
2022-12-11T04:40:14.985Z,78.32
2022-12-11T04:42:42.407Z,77.91
2022-12-11T04:45:10.982Z,77.82
2022-12-11T04:47:39.767Z,79.24
2022-12-11T04:50:09.313Z,79.49
2022-12-11T04:52:36.762Z,79.89
2022-12-11T04:55:05.979Z,78.90
2022-12-11T04:57:33.864Z,78.76
2022-12-11T05:00:02.013Z,79.18
2022-12-11T05:02:29.352Z,79.76
2022-12-11T05:04:56.685Z,79.67
2022-12-11T05:07:24.514Z,79.99
2022-12-11T05:09:51.736Z,79.25
2022-12-11T05:12:19.091Z,78.79
2022-12-11T05:14:46.431Z,78.92
2022-12-11T05:17:13.910Z,79.88
2022-12-11T05:19:41.287Z,80.49
2022-12-11T05:22:08.579Z,80.73
2022-12-11T05:24:35.896Z,81.24
2022-12-11T05:27:03.218Z,80.48
2022-12-11T05:29:30.414Z,80.42
2022-12-11T05:31:57.666Z,80.21
2022-12-11T05:34:25.001Z,80.18
2022-12-11T05:36:52.491Z,78.99
2022-12-11T05:39:19.936Z,78.99
2022-12-11T05:41:47.226Z,79.16
2022-12-11T05:44:14.524Z,78.89
2022-12-11T05:46:41.856Z,78.13
2022-12-11T05:49:10.663Z,78.12
2022-12-11T05:51:39.768Z,77.36
2022-12-11T05:54:07.338Z,77.02
2022-12-11T05:56:34.994Z,76.92
2022-12-11T05:59:03.570Z,77.40
2022-12-11T06:01:41.616Z,78.11
2022-12-11T06:04:10.946Z,78.61
2022-12-11T06:06:40.689Z,78.88
2022-12-11T06:09:08.146Z,78.85
2022-12-11T06:11:35.908Z,78.77
2022-12-11T06:14:03.854Z,79.50
2022-12-11T06:16:32.188Z,78.68
2022-12-11T06:19:03.020Z,78.81
2022-12-11T06:21:33.756Z,78.30
2022-12-11T06:24:03.648Z,78.33
2022-12-11T06:26:32.003Z,79.00
2022-12-11T06:28:59.556Z,79.07
2022-12-11T06:31:27.622Z,78.27
2022-12-11T06:33:55.137Z,77.84
2022-12-11T06:36:24.265Z,78.20
2022-12-11T06:38:52.459Z,79.13
2022-12-11T06:41:19.727Z,77.97
2022-12-11T06:43:47.349Z,78.81
2022-12-11T06:46:19.188Z,80.19
2022-12-11T06:48:46.914Z,78.83
2022-12-11T06:51:16.803Z,79.28
2022-12-11T06:53:44.799Z,78.68
2022-12-11T06:56:15.287Z,78.38
2022-12-11T06:58:43.921Z,79.78
2022-12-11T07:01:19.463Z,80.13
2022-12-11T07:03:47.298Z,79.96
2022-12-11T07:06:16.100Z,80.04
2022-12-11T07:08:43.634Z,80.27
2022-12-11T07:11:12.966Z,80.25
2022-12-11T07:13:42.039Z,80.06
2022-12-11T07:16:11.604Z,79.38
2022-12-11T07:18:43.693Z,78.72
2022-12-11T07:21:13.071Z,78.10
2022-12-11T07:23:41.328Z,77.81
2022-12-11T07:26:12.018Z,76.89
2022-12-11T07:28:40.045Z,76.84
2022-12-11T07:31:09.266Z,78.01
2022-12-11T07:33:36.705Z,77.49
2022-12-11T07:36:08.367Z,76.73
2022-12-11T07:38:36.114Z,76.55
2022-12-11T07:41:05.459Z,76.43
2022-12-11T07:43:36.180Z,77.06
2022-12-11T07:46:12.873Z,76.47
2022-12-11T07:48:41.889Z,75.79
2022-12-11T07:51:12.692Z,75.50
2022-12-11T07:53:39.963Z,75.77
2022-12-11T07:56:07.863Z,75.59
2022-12-11T07:58:36.100Z,75.69
2022-12-11T08:01:03.428Z,76.07
2022-12-11T08:03:30.967Z,77.20
2022-12-11T08:05:58.175Z,75.64
2022-12-11T08:08:25.684Z,76.54
2022-12-11T08:10:53.439Z,76.25
2022-12-11T08:13:20.671Z,75.94
2022-12-11T08:15:48.954Z,76.35
2022-12-11T08:18:16.359Z,75.86
2022-12-11T08:20:43.608Z,75.19
2022-12-11T08:23:11.902Z,75.21
2022-12-11T08:25:39.320Z,75.72
2022-12-11T08:28:06.954Z,75.46
2022-12-11T08:30:34.257Z,76.25
2022-12-11T08:33:01.693Z,75.32
2022-12-11T08:35:29.000Z,75.09
2022-12-11T08:37:56.247Z,74.97
2022-12-11T08:40:23.772Z,75.25
2022-12-11T08:42:52.285Z,74.81
2022-12-11T08:45:19.675Z,74.20
2022-12-11T08:47:46.926Z,73.90
2022-12-11T08:50:14.312Z,73.91
2022-12-11T08:52:44.262Z,73.58
2022-12-11T08:55:11.878Z,73.85
2022-12-11T08:57:39.902Z,73.80
2022-12-11T09:00:09.336Z,73.82
2022-12-11T09:02:36.650Z,74.07
2022-12-11T09:05:09.095Z,74.99
2022-12-11T09:07:37.598Z,76.03
2022-12-11T09:10:06.207Z,76.45
2022-12-11T09:12:37.130Z,78.56
2022-12-11T09:15:05.125Z,77.68
2022-12-11T09:17:35.325Z,70.16
2022-12-11T09:20:05.324Z,70.55
2022-12-11T09:22:33.732Z,70.98
2022-12-11T09:25:03.149Z,71.75
2022-12-11T09:27:30.422Z,72.01
2022-12-11T09:29:57.882Z,72.05
2022-12-11T09:32:25.112Z,72.05
2022-12-11T09:34:52.400Z,71.92
2022-12-11T09:37:19.640Z,72.21
2022-12-11T09:39:47.013Z,72.17
2022-12-11T09:42:35.833Z,71.28
2022-12-11T09:45:05.050Z,71.63
2022-12-11T09:47:43.337Z,71.61
2022-12-11T09:50:10.529Z,72.05
2022-12-11T09:52:39.121Z,72.92
2022-12-11T09:55:24.282Z,72.97
2022-12-11T09:58:16.977Z,73.27
2022-12-11T10:00:51.207Z,73.43
2022-12-11T10:03:24.626Z,73.27
2022-12-11T10:06:29.742Z,74.21
2022-12-11T10:09:18.573Z,73.32
2022-12-11T10:12:15.914Z,73.36
2022-12-11T10:15:24.540Z,73.08
2022-12-11T10:17:54.963Z,72.45
2022-12-11T10:20:29.243Z,71.40
2022-12-11T10:22:57.398Z,71.22
2022-12-11T10:25:30.182Z,70.98
2022-12-11T10:27:57.947Z,71.08
2022-12-11T10:30:30.459Z,71.90
2022-12-11T10:33:24.913Z,71.93
2022-12-11T10:35:55.170Z,71.38
2022-12-11T10:38:31.095Z,70.60
2022-12-11T10:41:01.908Z,71.18
2022-12-11T10:43:37.182Z,71.32
2022-12-11T10:46:05.564Z,71.21
2022-12-11T10:48:33.332Z,71.58
2022-12-11T10:51:07.057Z,71.18
2022-12-11T10:53:35.000Z,71.04
2022-12-11T10:56:02.452Z,71.33
2022-12-11T10:58:34.677Z,71.15
2022-12-11T11:01:18.516Z,71.21
2022-12-11T11:04:03.532Z,70.96
2022-12-11T11:06:30.930Z,71.21
2022-12-11T11:09:00.381Z,71.14
2022-12-11T11:11:36.921Z,71.13
2022-12-11T11:14:25.729Z,70.88
2022-12-11T11:16:56.496Z,70.60
2022-12-11T11:19:28.885Z,69.78
2022-12-11T11:21:58.664Z,69.48
2022-12-11T11:24:49.190Z,70.00
2022-12-11T11:27:37.144Z,69.05
2022-12-11T11:30:08.458Z,68.31
2022-12-11T11:32:40.201Z,68.31
2022-12-11T11:35:11.620Z,67.96
2022-12-11T11:37:49.075Z,68.21
2022-12-11T11:40:19.655Z,69.04
2022-12-11T11:43:11.270Z,68.53
2022-12-11T11:45:44.753Z,67.73
2022-12-11T11:48:40.001Z,67.68
2022-12-11T11:51:15.906Z,67.15
2022-12-11T11:53:48.449Z,67.50
2022-12-11T11:56:23.515Z,67.01
2022-12-11T11:59:23.631Z,67.00
2022-12-11T12:01:54.598Z,67.01
2022-12-11T12:04:22.231Z,64.25
2022-12-11T12:07:01.577Z,45.31
2022-12-11T12:09:44.160Z,51.71
2022-12-11T12:12:19.406Z,56.77
2022-12-11T12:15:28.745Z,60.11
2022-12-11T12:17:58.845Z,61.60
2022-12-11T12:20:50.956Z,61.90
2022-12-11T12:23:37.306Z,62.46
2022-12-11T12:26:27.274Z,63.15
2022-12-11T12:29:21.547Z,63.38
2022-12-11T12:32:26.404Z,63.97
2022-12-11T12:35:21.801Z,64.76
2022-12-11T12:38:00.087Z,64.50
2022-12-11T12:40:32.975Z,64.31
2022-12-11T12:43:19.551Z,64.67
2022-12-11T12:46:13.118Z,65.41
2022-12-11T12:48:40.474Z,65.31
2022-12-11T12:51:07.960Z,64.97
2022-12-11T12:53:36.948Z,65.49
2022-12-11T12:56:06.083Z,65.26
2022-12-11T12:58:41.461Z,65.31
2022-12-11T13:01:10.769Z,65.56
2022-12-11T13:03:51.111Z,65.52
2022-12-11T13:06:29.601Z,65.30
2022-12-11T13:08:57.241Z,65.68
2022-12-11T13:11:33.196Z,66.06
2022-12-11T13:14:05.351Z,64.76
2022-12-11T13:16:38.986Z,64.62
2022-12-11T13:19:27.914Z,64.72
2022-12-11T13:21:56.404Z,64.28
2022-12-11T13:24:23.712Z,64.29
2022-12-11T13:26:51.786Z,63.87
2022-12-11T13:29:48.514Z,64.56
2022-12-11T13:32:18.833Z,64.23
2022-12-11T13:34:54.132Z,63.97
2022-12-11T13:37:26.197Z,63.36
2022-12-11T13:39:53.651Z,63.41
2022-12-11T13:42:29.629Z,63.11
2022-12-11T13:44:57.590Z,62.55
2022-12-11T13:47:25.321Z,63.49
2022-12-11T13:50:02.818Z,63.87
2022-12-11T13:52:31.121Z,63.87
2022-12-11T13:54:59.348Z,64.16
2022-12-11T13:57:28.620Z,64.09
2022-12-11T13:59:57.753Z,63.47
2022-12-11T14:02:38.747Z,63.96
2022-12-11T14:05:09.227Z,63.71
2022-12-11T14:07:50.230Z,62.82
2022-12-11T14:10:23.250Z,62.71
2022-12-11T14:12:58.694Z,62.70
2022-12-11T14:15:27.363Z,62.57
2022-12-11T14:17:55.103Z,62.07
2022-12-11T14:20:27.890Z,62.66
2022-12-11T14:23:06.631Z,62.94
2022-12-11T14:25:34.012Z,63.16
2022-12-11T14:28:01.741Z,63.28
2022-12-11T14:30:32.554Z,63.07
2022-12-11T14:33:04.502Z,63.42
2022-12-11T14:35:39.404Z,62.55
2022-12-11T14:38:24.277Z,62.87
2022-12-11T14:40:59.879Z,62.39
2022-12-11T14:43:38.091Z,62.89
2022-12-11T14:46:09.493Z,63.62
2022-12-11T14:48:44.957Z,63.74
2022-12-11T14:51:20.495Z,64.23
2022-12-11T14:53:49.309Z,63.67
2022-12-11T14:56:21.951Z,63.95
2022-12-11T14:58:58.739Z,64.80
2022-12-11T15:01:30.204Z,64.29
2022-12-11T15:04:15.927Z,64.33
2022-12-11T15:06:45.130Z,64.25
2022-12-11T15:09:27.839Z,64.55
2022-12-11T15:12:07.750Z,65.34
2022-12-11T15:14:35.071Z,65.90
2022-12-11T15:17:02.526Z,65.38
2022-12-11T15:19:32.223Z,65.41
2022-12-11T15:22:07.806Z,65.97
2022-12-11T15:24:37.522Z,66.42
2022-12-11T15:27:06.108Z,66.37
2022-12-11T15:29:39.609Z,65.89
2022-12-11T15:32:09.836Z,66.55
2022-12-11T15:34:52.583Z,66.48
2022-12-11T15:37:27.396Z,67.45
2022-12-11T15:39:56.327Z,67.90
2022-12-11T15:42:32.997Z,68.30
2022-12-11T15:45:00.730Z,67.23
2022-12-11T15:47:31.123Z,67.01
2022-12-11T15:50:00.633Z,67.78
2022-12-11T15:52:28.282Z,67.90
2022-12-11T15:54:55.674Z,68.14
2022-12-11T15:57:24.265Z,68.76
2022-12-11T15:59:54.939Z,69.30
2022-12-11T16:02:24.374Z,69.37
2022-12-11T16:04:51.900Z,69.14
2022-12-11T16:07:21.525Z,68.96
2022-12-11T16:09:49.217Z,68.38
2022-12-11T16:12:16.573Z,68.69
2022-12-11T16:14:47.087Z,70.05
2022-12-11T16:17:15.700Z,70.03
2022-12-11T16:19:44.009Z,67.81
2022-12-11T16:22:12.722Z,66.15
2022-12-11T16:24:40.250Z,66.80
2022-12-11T16:27:09.572Z,66.67
2022-12-11T16:29:37.757Z,67.54
2022-12-11T16:32:07.085Z,67.98
2022-12-11T16:34:36.174Z,69.04
2022-12-11T16:37:04.796Z,69.41
2022-12-11T16:39:32.318Z,69.61
2022-12-11T16:41:59.613Z,69.98
2022-12-11T16:44:27.438Z,71.12
2022-12-11T16:46:55.279Z,71.43
2022-12-11T16:49:22.600Z,73.56
2022-12-11T16:51:49.990Z,73.92
2022-12-11T16:54:17.962Z,73.80
2022-12-11T16:56:45.729Z,74.64
2022-12-11T16:59:13.110Z,75.29
2022-12-11T17:01:41.095Z,74.65
2022-12-11T17:04:08.897Z,75.16
2022-12-11T17:06:36.537Z,74.84
2022-12-11T17:09:03.871Z,74.47
2022-12-11T17:11:31.154Z,75.17
2022-12-11T17:13:59.819Z,75.53
2022-12-11T17:16:30.342Z,74.85
2022-12-11T17:18:59.005Z,75.72
2022-12-11T17:21:26.323Z,75.72
2022-12-11T17:23:53.695Z,76.85
2022-12-11T17:26:21.455Z,76.70
2022-12-11T17:28:48.738Z,77.12
2022-12-11T17:31:17.808Z,77.63
2022-12-11T17:33:46.315Z,77.69
2022-12-11T17:36:19.017Z,77.13
2022-12-11T17:38:46.842Z,76.65
2022-12-11T17:41:20.415Z,76.72
2022-12-11T17:43:50.346Z,76.40
2022-12-11T17:46:21.124Z,76.12
2022-12-11T17:48:51.383Z,76.20
2022-12-11T17:51:23.980Z,76.02
2022-12-11T17:53:53.239Z,76.19
2022-12-11T17:56:20.759Z,76.14
2022-12-11T17:58:48.726Z,76.22
2022-12-11T18:01:16.329Z,76.39
2022-12-11T18:03:43.629Z,76.54
2022-12-11T18:06:14.647Z,76.86
2022-12-11T18:08:44.545Z,76.38
2022-12-11T18:11:13.830Z,77.00
2022-12-11T18:13:41.962Z,77.23
2022-12-11T18:16:13.526Z,77.24
2022-12-11T18:18:40.832Z,79.44
2022-12-11T18:21:13.085Z,76.97
2022-12-11T18:23:40.496Z,76.95
2022-12-11T18:26:08.240Z,77.48
2022-12-11T18:28:35.541Z,77.75
2022-12-11T18:31:03.999Z,77.34
2022-12-11T18:33:32.173Z,77.47
2022-12-11T18:35:59.633Z,76.73
2022-12-11T18:38:26.904Z,76.16
2022-12-11T18:40:54.353Z,76.22
2022-12-11T18:43:21.644Z,75.70
2022-12-11T18:45:49.035Z,75.55
2022-12-11T18:48:16.574Z,74.81
2022-12-11T18:50:48.713Z,74.84
2022-12-11T18:53:17.226Z,74.63
2022-12-11T18:55:47.475Z,74.89
2022-12-11T18:58:17.674Z,73.92
2022-12-11T19:00:46.358Z,74.28
2022-12-11T19:03:14.217Z,74.47
2022-12-11T19:05:43.680Z,74.16
2022-12-11T19:08:12.656Z,74.03
2022-12-11T19:10:44.887Z,73.40
2022-12-11T19:13:13.098Z,73.59
2022-12-11T19:15:47.354Z,73.67
2022-12-11T19:18:14.881Z,74.33
2022-12-11T19:20:49.446Z,74.83
2022-12-11T19:23:17.322Z,75.25
2022-12-11T19:25:46.895Z,74.78
2022-12-11T19:28:15.536Z,74.95
2022-12-11T19:30:48.887Z,75.85
2022-12-11T19:33:16.892Z,75.18
2022-12-11T19:35:44.720Z,74.68
2022-12-11T19:38:18.443Z,75.41
2022-12-11T19:40:46.087Z,75.05
2022-12-11T19:43:13.412Z,75.70
2022-12-11T19:45:41.448Z,75.86
2022-12-11T19:48:08.761Z,75.44
2022-12-11T19:50:36.482Z,74.98
2022-12-11T19:53:04.229Z,75.30
2022-12-11T19:55:31.799Z,75.15
2022-12-11T19:57:59.926Z,75.01
2022-12-11T20:00:27.230Z,75.04
2022-12-11T20:02:55.171Z,74.83
2022-12-11T20:05:22.608Z,74.12
2022-12-11T20:07:49.935Z,74.30
2022-12-11T20:10:17.226Z,74.68
2022-12-11T20:12:44.523Z,74.77
2022-12-11T20:15:12.265Z,74.19
2022-12-11T20:17:44.590Z,74.11
2022-12-11T20:20:11.999Z,74.09
2022-12-11T20:22:39.316Z,73.94
2022-12-11T20:25:07.403Z,74.55
2022-12-11T20:27:34.853Z,75.19
2022-12-11T20:30:03.564Z,74.96
2022-12-11T20:32:30.936Z,74.38
2022-12-11T20:34:58.319Z,73.28
2022-12-11T20:37:26.820Z,73.04
2022-12-11T20:39:54.234Z,74.47
2022-12-11T20:42:21.937Z,75.21
2022-12-11T20:44:50.619Z,74.95
2022-12-11T20:47:19.823Z,75.73
2022-12-11T20:49:48.300Z,76.06
2022-12-11T20:52:17.066Z,76.07
2022-12-11T20:54:44.565Z,74.81
2022-12-11T20:57:13.836Z,74.51
2022-12-11T20:59:41.229Z,75.55
2022-12-11T21:02:09.306Z,76.17
2022-12-11T21:04:41.609Z,75.32
2022-12-11T21:07:09.990Z,74.87
2022-12-11T21:09:38.236Z,74.54
2022-12-11T21:12:06.419Z,74.07
2022-12-11T21:14:33.910Z,74.79
2022-12-11T21:17:01.286Z,75.57
2022-12-11T21:19:28.660Z,76.26
2022-12-11T21:21:56.870Z,76.46
2022-12-11T21:24:26.665Z,75.50
2022-12-11T21:26:55.926Z,75.40
2022-12-11T21:29:24.663Z,75.31
2022-12-11T21:31:53.059Z,75.23
2022-12-11T21:34:25.367Z,73.97
2022-12-11T21:36:56.752Z,74.31
2022-12-11T21:39:25.287Z,74.43
2022-12-11T21:41:53.222Z,74.74
2022-12-11T21:47:09.212Z,75.81
2022-12-11T21:49:37.289Z,75.50
2022-12-11T21:52:05.197Z,74.92
2022-12-11T21:54:32.405Z,75.14
2022-12-11T21:56:59.715Z,75.89
2022-12-11T21:59:28.556Z,74.98
2022-12-11T22:01:55.935Z,74.76
2022-12-11T22:04:23.368Z,74.53
2022-12-11T22:06:50.801Z,74.76
2022-12-11T22:09:18.449Z,74.70
2022-12-11T22:11:46.152Z,74.89
2022-12-11T22:14:14.703Z,75.00
2022-12-11T22:16:42.653Z,75.50
2022-12-11T22:19:10.407Z,76.64
2022-12-11T22:21:38.097Z,75.87
2022-12-11T22:24:05.537Z,75.46
2022-12-11T22:26:32.805Z,75.18
2022-12-11T22:29:00.252Z,75.33
2022-12-11T22:31:27.652Z,75.40
2022-12-11T22:33:55.427Z,75.83
2022-12-11T22:36:25.231Z,76.24
2022-12-11T22:38:52.631Z,75.48
2022-12-11T22:41:27.719Z,75.18
2022-12-11T22:43:56.178Z,75.02
2022-12-11T22:46:25.768Z,74.86
2022-12-11T22:48:53.643Z,74.64
2022-12-11T22:51:21.636Z,74.78
2022-12-11T22:53:49.197Z,74.46
2022-12-11T22:56:16.718Z,74.51
2022-12-11T22:58:44.038Z,73.95
2022-12-11T23:01:15.718Z,74.18
2022-12-11T23:03:43.368Z,73.96
2022-12-11T23:06:13.161Z,73.62
2022-12-11T23:08:41.339Z,73.27
2022-12-11T23:11:24.419Z,73.46
2022-12-11T23:13:52.433Z,73.54
2022-12-11T23:16:21.658Z,73.98
2022-12-11T23:18:48.976Z,74.50
2022-12-11T23:21:16.416Z,74.33
2022-12-11T23:23:43.883Z,74.07
2022-12-11T23:26:12.518Z,73.15
2022-12-11T23:28:40.293Z,73.46
2022-12-11T23:31:08.299Z,73.55
2022-12-11T23:33:36.318Z,73.81
2022-12-11T23:36:04.459Z,73.92
2022-12-11T23:38:32.543Z,73.54
2022-12-11T23:41:01.560Z,73.58
2022-12-11T23:43:29.013Z,73.84
2022-12-11T23:45:57.679Z,75.40
2022-12-11T23:48:25.030Z,75.89
2022-12-11T23:50:52.387Z,76.23
2022-12-11T23:53:19.624Z,76.44
2022-12-11T23:55:47.447Z,76.59
2022-12-11T23:58:15.285Z,76.45
